createdAt,value
2018-12-09T00:00:34.666Z,985.78
2018-12-09T00:01:34.659Z,985.73
2018-12-09T00:02:34.660Z,985.69
2018-12-09T00:03:34.660Z,985.65
2018-12-09T00:04:34.627Z,985.60
2018-12-09T00:05:34.618Z,985.58
2018-12-09T00:06:34.605Z,985.56
2018-12-09T00:07:34.598Z,985.56
2018-12-09T00:08:34.584Z,985.47
2018-12-09T00:09:34.574Z,985.47
2018-12-09T00:10:34.583Z,985.45
2018-12-09T00:11:34.551Z,985.36
2018-12-09T00:12:34.542Z,985.45
2018-12-09T00:13:34.533Z,985.35
2018-12-09T00:14:34.517Z,985.37
2018-12-09T00:15:34.513Z,985.35
2018-12-09T00:16:34.501Z,985.35
2018-12-09T00:17:34.497Z,985.32
2018-12-09T00:18:34.482Z,985.24
2018-12-09T00:19:34.467Z,985.34
2018-12-09T00:20:34.457Z,985.23
2018-12-09T00:21:34.451Z,985.06
2018-12-09T00:22:34.440Z,985.19
2018-12-09T00:23:34.425Z,985.19
2018-12-09T00:24:34.412Z,985.09
2018-12-09T00:25:34.408Z,985.06
2018-12-09T00:26:34.397Z,985.08
2018-12-09T00:27:34.396Z,985.04
2018-12-09T00:28:34.381Z,985.02
2018-12-09T00:29:34.463Z,984.96
2018-12-09T00:30:34.353Z,984.96
2018-12-09T00:31:34.352Z,984.91
2018-12-09T00:32:34.332Z,984.93
2018-12-09T00:33:34.317Z,984.80
2018-12-09T00:34:34.309Z,984.79
2018-12-09T00:35:34.298Z,984.81
2018-12-09T00:36:34.287Z,984.86
2018-12-09T00:37:34.279Z,984.66
2018-12-09T00:38:34.370Z,984.71
2018-12-09T00:39:34.258Z,984.72
2018-12-09T00:40:34.254Z,984.60
2018-12-09T00:41:34.238Z,984.68
2018-12-09T00:42:34.228Z,984.67
2018-12-09T00:43:34.212Z,984.57
2018-12-09T00:44:34.202Z,984.52
2018-12-09T00:45:34.196Z,984.55
2018-12-09T00:46:34.188Z,984.47
2018-12-09T00:47:34.174Z,984.54
2018-12-09T00:48:34.160Z,984.47
2018-12-09T00:49:34.153Z,984.46
2018-12-09T00:50:34.138Z,984.43
2018-12-09T00:51:34.130Z,984.50
2018-12-09T00:52:34.116Z,984.42
2018-12-09T00:53:34.113Z,984.39
2018-12-09T00:54:34.100Z,984.34
2018-12-09T00:55:34.091Z,984.28
2018-12-09T00:56:34.081Z,984.28
2018-12-09T00:57:34.069Z,984.27
2018-12-09T00:58:34.064Z,984.23
2018-12-09T00:59:34.049Z,984.16
2018-12-09T01:00:34.037Z,984.23
2018-12-09T01:01:34.024Z,984.16
2018-12-09T01:02:34.011Z,984.18
2018-12-09T01:03:34.007Z,984.09
2018-12-09T01:04:33.995Z,983.97
2018-12-09T01:05:33.983Z,983.92
2018-12-09T01:06:33.967Z,983.93
2018-12-09T01:07:33.959Z,983.88
2018-12-09T01:08:33.953Z,983.77
2018-12-09T01:09:33.939Z,983.69
2018-12-09T01:10:33.926Z,983.63
2018-12-09T01:11:33.915Z,983.59
2018-12-09T01:12:33.904Z,983.54
2018-12-09T01:13:33.899Z,983.72
2018-12-09T01:14:33.881Z,983.69
2018-12-09T01:15:33.870Z,983.65
2018-12-09T01:16:33.864Z,983.53
2018-12-09T01:17:33.856Z,983.48
2018-12-09T01:18:33.839Z,983.37
2018-12-09T01:19:33.829Z,983.31
2018-12-09T01:20:33.819Z,983.35
2018-12-09T01:21:33.811Z,983.22
2018-12-09T01:22:33.798Z,983.30
2018-12-09T01:23:33.783Z,983.19
2018-12-09T01:24:33.777Z,983.20
2018-12-09T01:25:33.768Z,983.23
2018-12-09T01:26:33.763Z,983.20
2018-12-09T01:27:33.743Z,983.26
2018-12-09T01:28:33.737Z,983.16
2018-12-09T01:29:33.724Z,983.15
2018-12-09T01:30:33.719Z,983.04
2018-12-09T01:31:33.705Z,983.03
2018-12-09T01:32:33.698Z,983.11
2018-12-09T01:33:33.685Z,983.02
2018-12-09T01:34:33.676Z,983.08
2018-12-09T01:35:33.668Z,983.01
2018-12-09T01:36:33.650Z,983.02
2018-12-09T01:37:33.634Z,982.99
2018-12-09T01:38:33.637Z,982.94
2018-12-09T01:39:33.621Z,982.95
2018-12-09T01:40:33.603Z,982.97
2018-12-09T01:41:33.595Z,982.93
2018-12-09T01:42:33.586Z,982.84
2018-12-09T01:43:33.582Z,982.85
2018-12-09T01:44:33.574Z,982.77
2018-12-09T01:45:33.557Z,982.83
2018-12-09T01:46:33.551Z,982.77
2018-12-09T01:47:33.540Z,982.73
2018-12-09T01:48:33.534Z,982.75
2018-12-09T01:49:33.529Z,982.71
2018-12-09T01:50:33.503Z,982.76
2018-12-09T01:51:33.493Z,982.72
2018-12-09T01:52:33.480Z,982.83
2018-12-09T01:53:33.473Z,982.76
2018-12-09T01:54:33.459Z,982.78
2018-12-09T01:55:33.453Z,982.67
2018-12-09T01:56:33.443Z,982.77
2018-12-09T01:57:33.436Z,982.60
2018-12-09T01:58:33.417Z,982.61
2018-12-09T01:59:33.409Z,982.58
2018-12-09T02:00:33.401Z,982.56
2018-12-09T02:01:33.389Z,982.58
2018-12-09T02:02:33.374Z,982.57
2018-12-09T02:03:33.363Z,982.45
2018-12-09T02:04:33.353Z,982.42
2018-12-09T02:05:33.343Z,982.46
2018-12-09T02:06:33.336Z,982.44
2018-12-09T02:07:33.323Z,982.43
2018-12-09T02:08:33.314Z,982.42
2018-12-09T02:09:33.303Z,982.48
2018-12-09T02:10:33.295Z,982.47
2018-12-09T02:11:33.285Z,982.34
2018-12-09T02:12:33.265Z,982.33
2018-12-09T02:13:33.264Z,982.33
2018-12-09T02:14:33.249Z,982.29
2018-12-09T02:15:33.241Z,982.29
2018-12-09T02:16:33.232Z,982.29
2018-12-09T02:17:33.217Z,982.26
2018-12-09T02:18:33.211Z,982.20
2018-12-09T02:19:33.197Z,982.21
2018-12-09T02:20:33.191Z,982.21
2018-12-09T02:21:33.179Z,982.21
2018-12-09T02:22:33.170Z,982.08
2018-12-09T02:23:33.161Z,982.16
2018-12-09T02:24:33.145Z,982.11
2018-12-09T02:25:33.143Z,982.10
2018-12-09T02:26:33.126Z,982.05
2018-12-09T02:27:33.111Z,982.01
2018-12-09T02:28:33.115Z,982.04
2018-12-09T02:29:33.097Z,982.02
2018-12-09T02:30:33.080Z,981.99
2018-12-09T02:31:33.072Z,981.97
2018-12-09T02:32:33.063Z,981.89
2018-12-09T02:33:33.048Z,981.96
2018-12-09T02:34:33.045Z,981.90
2018-12-09T02:35:33.030Z,981.89
2018-12-09T02:36:33.021Z,981.88
2018-12-09T02:37:33.012Z,981.86
2018-12-09T02:38:32.999Z,981.87
2018-12-09T02:39:32.997Z,981.87
2018-12-09T02:40:32.976Z,981.83
2018-12-09T02:41:32.964Z,981.86
2018-12-09T02:42:32.956Z,981.78
2018-12-09T02:43:32.948Z,981.73
2018-12-09T02:44:32.941Z,981.75
2018-12-09T02:45:32.922Z,981.73
2018-12-09T02:46:32.915Z,981.70
2018-12-09T02:47:32.906Z,981.68
2018-12-09T02:48:32.893Z,981.72
2018-12-09T02:49:32.887Z,981.70
2018-12-09T02:50:32.875Z,981.69
2018-12-09T02:51:32.865Z,981.63
2018-12-09T02:52:32.850Z,981.64
2018-12-09T02:53:32.842Z,981.59
2018-12-09T02:54:32.830Z,981.57
2018-12-09T02:55:32.820Z,981.49
2018-12-09T02:56:32.802Z,981.52
2018-12-09T02:57:32.809Z,981.42
2018-12-09T02:58:32.785Z,981.31
2018-12-09T02:59:32.776Z,981.42
2018-12-09T03:00:32.762Z,981.42
2018-12-09T03:01:32.748Z,981.34
2018-12-09T03:02:32.743Z,981.40
2018-12-09T03:03:32.729Z,981.38
2018-12-09T03:04:32.726Z,981.33
2018-12-09T03:05:32.708Z,981.34
2018-12-09T03:06:32.700Z,981.33
2018-12-09T03:07:32.682Z,981.28
2018-12-09T03:08:32.677Z,981.35
2018-12-09T03:09:32.667Z,981.31
2018-12-09T03:10:32.664Z,981.30
2018-12-09T03:11:32.640Z,981.29
2018-12-09T03:12:32.633Z,981.32
2018-12-09T03:13:32.627Z,981.27
2018-12-09T03:14:32.610Z,981.27
2018-12-09T03:15:32.604Z,981.21
2018-12-09T03:16:32.594Z,981.31
2018-12-09T03:17:32.581Z,981.24
2018-12-09T03:18:32.593Z,981.21
2018-12-09T03:19:32.562Z,981.25
2018-12-09T03:20:32.551Z,981.20
2018-12-09T03:21:32.534Z,981.20
2018-12-09T03:22:32.529Z,981.17
2018-12-09T03:23:32.521Z,981.18
2018-12-09T03:24:32.504Z,981.16
2018-12-09T03:25:32.499Z,981.14
2018-12-09T03:26:32.486Z,981.10
2018-12-09T03:27:32.475Z,981.11
2018-12-09T03:28:32.472Z,981.11
2018-12-09T03:29:32.473Z,981.09
2018-12-09T03:30:32.445Z,981.07
2018-12-09T03:31:32.434Z,981.08
2018-12-09T03:32:32.424Z,981.04
2018-12-09T03:33:34.441Z,981.09
2018-12-09T03:34:32.408Z,981.06
2018-12-09T03:35:32.392Z,981.06
2018-12-09T03:36:32.384Z,981.07
2018-12-09T03:37:32.375Z,981.06
2018-12-09T03:38:32.365Z,981.01
2018-12-09T03:39:32.348Z,980.94
2018-12-09T03:40:32.339Z,980.96
2018-12-09T03:41:32.326Z,981.01
2018-12-09T03:42:32.313Z,980.90
2018-12-09T03:43:32.316Z,981.01
2018-12-09T03:44:32.293Z,981.01
2018-12-09T03:45:32.282Z,981.01
2018-12-09T03:46:32.271Z,980.99
2018-12-09T03:47:32.257Z,981.03
2018-12-09T03:48:32.256Z,981.04
2018-12-09T03:49:32.236Z,981.03
2018-12-09T03:50:32.226Z,980.97
2018-12-09T03:51:32.218Z,980.88
2018-12-09T03:52:32.205Z,980.89
2018-12-09T03:53:32.220Z,980.90
2018-12-09T03:54:32.182Z,980.90
2018-12-09T03:55:32.173Z,980.93
2018-12-09T03:56:32.161Z,980.87
2018-12-09T03:57:32.153Z,980.81
2018-12-09T03:58:32.147Z,980.86
2018-12-09T03:59:32.135Z,980.89
2018-12-09T04:00:32.122Z,980.89
2018-12-09T04:01:32.111Z,980.86
2018-12-09T04:02:32.103Z,980.80
2018-12-09T04:03:32.089Z,980.85
2018-12-09T04:04:32.078Z,980.89
2018-12-09T04:05:32.081Z,980.95
2018-12-09T04:06:32.070Z,980.93
2018-12-09T04:07:32.047Z,980.92
2018-12-09T04:08:32.036Z,980.93
2018-12-09T04:09:32.027Z,980.89
2018-12-09T04:10:32.017Z,980.81
2018-12-09T04:11:32.015Z,980.88
2018-12-09T04:12:31.999Z,980.88
2018-12-09T04:13:31.982Z,980.85
2018-12-09T04:14:31.982Z,980.90
2018-12-09T04:15:31.963Z,980.89
2018-12-09T04:16:31.952Z,980.86
2018-12-09T04:17:31.946Z,980.82
2018-12-09T04:18:31.932Z,980.80
2018-12-09T04:19:31.918Z,980.81
2018-12-09T04:20:31.909Z,980.75
2018-12-09T04:21:31.895Z,980.81
2018-12-09T04:22:31.887Z,980.67
2018-12-09T04:23:31.875Z,980.72
2018-12-09T04:24:31.870Z,980.76
2018-12-09T04:25:31.851Z,980.79
2018-12-09T04:26:31.843Z,980.75
2018-12-09T04:27:31.837Z,980.68
2018-12-09T04:28:31.821Z,980.73
2018-12-09T04:29:31.819Z,980.66
2018-12-09T04:30:31.795Z,980.60
2018-12-09T04:31:31.818Z,980.66
2018-12-09T04:32:31.786Z,980.65
2018-12-09T04:33:31.773Z,980.72
2018-12-09T04:34:31.763Z,980.69
2018-12-09T04:35:31.754Z,980.68
2018-12-09T04:36:31.739Z,980.67
2018-12-09T04:37:31.726Z,980.73
2018-12-09T04:38:31.717Z,980.66
2018-12-09T04:39:31.707Z,980.72
2018-12-09T04:40:31.696Z,980.68
2018-12-09T04:41:31.687Z,980.72
2018-12-09T04:42:31.675Z,980.65
2018-12-09T04:43:31.659Z,980.71
2018-12-09T04:44:31.655Z,980.69
2018-12-09T04:45:31.642Z,980.70
2018-12-09T04:46:31.636Z,980.74
2018-12-09T04:47:31.618Z,980.70
2018-12-09T04:48:31.613Z,980.75
2018-12-09T04:49:31.603Z,980.76
2018-12-09T04:50:31.590Z,980.74
2018-12-09T04:51:31.575Z,980.77
2018-12-09T04:52:31.571Z,980.78
2018-12-09T04:53:31.557Z,980.70
2018-12-09T04:54:31.547Z,980.77
2018-12-09T04:55:31.541Z,980.75
2018-12-09T04:56:31.524Z,980.70
2018-12-09T04:57:31.509Z,980.78
2018-12-09T04:58:31.501Z,980.77
2018-12-09T04:59:31.487Z,980.73
2018-12-09T05:00:31.478Z,980.75
2018-12-09T05:01:31.477Z,980.83
2018-12-09T05:02:31.456Z,980.83
2018-12-09T05:03:31.441Z,980.80
2018-12-09T05:04:31.439Z,980.85
2018-12-09T05:05:31.435Z,980.78
2018-12-09T05:06:31.415Z,980.79
2018-12-09T05:07:31.403Z,980.87
2018-12-09T05:08:31.393Z,980.73
2018-12-09T05:09:31.385Z,980.84
2018-12-09T05:10:31.369Z,980.82
2018-12-09T05:11:31.351Z,980.85
2018-12-09T05:12:31.343Z,980.89
2018-12-09T05:13:31.334Z,980.84
2018-12-09T05:14:31.327Z,980.92
2018-12-09T05:15:31.321Z,980.90
2018-12-09T05:16:31.303Z,980.88
2018-12-09T05:17:31.287Z,980.91
2018-12-09T05:18:31.279Z,980.93
2018-12-09T05:19:31.271Z,980.92
2018-12-09T05:20:31.258Z,980.89
2018-12-09T05:21:31.250Z,981.00
2018-12-09T05:22:31.238Z,981.07
2018-12-09T05:23:31.228Z,980.97
2018-12-09T05:24:31.219Z,981.05
2018-12-09T05:25:31.212Z,981.12
2018-12-09T05:26:31.194Z,981.06
2018-12-09T05:27:31.186Z,981.11
2018-12-09T05:28:31.182Z,981.04
2018-12-09T05:29:31.160Z,981.13
2018-12-09T05:30:31.154Z,981.14
2018-12-09T05:31:31.140Z,981.20
2018-12-09T05:32:31.124Z,981.14
2018-12-09T05:33:31.116Z,981.13
2018-12-09T05:34:31.104Z,981.25
2018-12-09T05:35:31.102Z,981.14
2018-12-09T05:36:31.088Z,981.14
2018-12-09T05:37:31.073Z,981.23
2018-12-09T05:38:31.062Z,981.16
2018-12-09T05:39:31.055Z,981.20
2018-12-09T05:40:31.039Z,981.22
2018-12-09T05:41:31.026Z,981.30
2018-12-09T05:42:31.020Z,981.26
2018-12-09T05:43:31.005Z,981.25
2018-12-09T05:44:30.994Z,981.31
2018-12-09T05:45:30.983Z,981.27
2018-12-09T05:46:30.972Z,981.27
2018-12-09T05:47:30.965Z,981.21
2018-12-09T05:48:30.946Z,981.26
2018-12-09T05:49:30.940Z,981.24
2018-12-09T05:50:30.927Z,981.23
2018-12-09T05:51:30.920Z,981.16
2018-12-09T05:52:30.908Z,981.20
2018-12-09T05:53:30.897Z,981.24
2018-12-09T05:54:30.886Z,981.25
2018-12-09T05:55:30.877Z,981.22
2018-12-09T05:56:30.860Z,981.27
2018-12-09T05:57:30.851Z,981.29
2018-12-09T05:58:30.842Z,981.27
2018-12-09T05:59:30.830Z,981.29
2018-12-09T06:00:30.835Z,981.32
2018-12-09T06:01:30.812Z,981.41
2018-12-09T06:02:30.804Z,981.37
2018-12-09T06:03:30.792Z,981.30
2018-12-09T06:04:30.771Z,981.35
2018-12-09T06:05:30.761Z,981.38
2018-12-09T06:06:30.750Z,981.31
2018-12-09T06:07:30.743Z,981.34
2018-12-09T06:08:30.736Z,981.37
2018-12-09T06:09:30.725Z,981.34
2018-12-09T06:10:30.712Z,981.31
2018-12-09T06:11:30.700Z,981.33
2018-12-09T06:12:30.689Z,981.39
2018-12-09T06:13:30.679Z,981.40
2018-12-09T06:14:30.665Z,981.46
2018-12-09T06:15:30.652Z,981.39
2018-12-09T06:16:30.640Z,981.46
2018-12-09T06:17:30.634Z,981.51
2018-12-09T06:18:30.615Z,981.55
2018-12-09T06:19:30.610Z,981.54
2018-12-09T06:20:30.597Z,981.45
2018-12-09T06:21:30.588Z,981.53
2018-12-09T06:22:30.570Z,981.53
2018-12-09T06:23:30.569Z,981.56
2018-12-09T06:24:30.564Z,981.57
2018-12-09T06:25:30.544Z,981.54
2018-12-09T06:26:30.529Z,981.55
2018-12-09T06:27:30.520Z,981.63
2018-12-09T06:28:30.511Z,981.60
2018-12-09T06:29:30.503Z,981.61
2018-12-09T06:30:30.492Z,981.62
2018-12-09T06:31:30.479Z,981.64
2018-12-09T06:32:30.466Z,981.73
2018-12-09T06:33:30.457Z,981.68
2018-12-09T06:34:30.455Z,981.73
2018-12-09T06:35:30.438Z,981.70
2018-12-09T06:36:30.429Z,981.66
2018-12-09T06:37:30.416Z,981.71
2018-12-09T06:38:30.401Z,981.80
2018-12-09T06:39:30.392Z,981.92
2018-12-09T06:40:30.387Z,981.75
2018-12-09T06:41:30.375Z,981.84
2018-12-09T06:42:30.359Z,981.82
2018-12-09T06:43:30.356Z,981.83
2018-12-09T06:44:30.339Z,981.87
2018-12-09T06:45:30.328Z,981.94
2018-12-09T06:46:30.324Z,981.84
2018-12-09T06:47:30.308Z,981.85
2018-12-09T06:48:30.294Z,982.00
2018-12-09T06:49:30.282Z,981.92
2018-12-09T06:50:30.270Z,981.98
2018-12-09T06:51:30.261Z,981.94
2018-12-09T06:52:30.250Z,981.84
2018-12-09T06:53:30.244Z,982.04
2018-12-09T06:54:30.234Z,982.02
2018-12-09T06:55:30.220Z,982.01
2018-12-09T06:56:30.214Z,982.09
2018-12-09T06:57:30.200Z,982.11
2018-12-09T06:58:30.202Z,982.12
2018-12-09T06:59:30.173Z,982.23
2018-12-09T07:00:30.172Z,982.26
2018-12-09T07:01:30.832Z,982.17
2018-12-09T07:02:30.150Z,982.20
2018-12-09T07:03:30.136Z,982.24
2018-12-09T07:04:30.118Z,982.23
2018-12-09T07:05:30.111Z,982.29
2018-12-09T07:06:30.098Z,982.29
2018-12-09T07:07:30.085Z,982.28
2018-12-09T07:08:30.072Z,982.35
2018-12-09T07:09:30.064Z,982.39
2018-12-09T07:10:30.058Z,982.44
2018-12-09T07:11:30.044Z,982.44
2018-12-09T07:12:30.097Z,982.42
2018-12-09T07:13:30.022Z,982.56
2018-12-09T07:14:30.010Z,982.63
2018-12-09T07:15:29.999Z,982.65
2018-12-09T07:16:29.989Z,982.59
2018-12-09T07:17:29.978Z,982.66
2018-12-09T07:18:29.973Z,982.62
2018-12-09T07:19:29.959Z,982.74
2018-12-09T07:20:29.946Z,982.71
2018-12-09T07:21:29.936Z,982.74
2018-12-09T07:22:29.925Z,982.75
2018-12-09T07:23:29.912Z,982.79
2018-12-09T07:24:29.901Z,982.77
2018-12-09T07:25:29.889Z,982.83
2018-12-09T07:26:29.880Z,982.83
2018-12-09T07:27:29.877Z,982.90
2018-12-09T07:28:29.859Z,982.94
2018-12-09T07:29:29.848Z,982.92
2018-12-09T07:30:29.861Z,982.88
2018-12-09T07:31:29.824Z,982.97
2018-12-09T07:32:29.818Z,982.99
2018-12-09T07:33:29.802Z,982.97
2018-12-09T07:34:29.797Z,982.98
2018-12-09T07:35:29.784Z,983.01
2018-12-09T07:36:29.772Z,983.04
2018-12-09T07:37:29.764Z,983.09
2018-12-09T07:38:29.754Z,983.03
2018-12-09T07:39:29.742Z,983.04
2018-12-09T07:40:29.736Z,983.02
2018-12-09T07:41:29.720Z,983.01
2018-12-09T07:42:29.705Z,983.05
2018-12-09T07:43:29.700Z,983.06
2018-12-09T07:44:29.684Z,983.11
2018-12-09T07:45:29.673Z,983.12
2018-12-09T07:46:29.662Z,983.10
2018-12-09T07:47:29.651Z,983.09
2018-12-09T07:48:29.646Z,983.15
2018-12-09T07:49:29.631Z,983.14
2018-12-09T07:50:29.618Z,983.16
2018-12-09T07:51:29.605Z,983.18
2018-12-09T07:52:29.592Z,983.16
2018-12-09T07:53:29.590Z,983.21
2018-12-09T07:54:29.572Z,983.21
2018-12-09T07:55:29.566Z,983.29
2018-12-09T07:56:29.556Z,983.31
2018-12-09T07:57:29.549Z,983.31
2018-12-09T07:58:29.638Z,983.32
2018-12-09T07:59:29.533Z,983.32
2018-12-09T08:00:29.541Z,983.32
2018-12-09T08:01:29.519Z,983.35
2018-12-09T08:02:29.492Z,983.36
2018-12-09T08:03:29.726Z,983.39
2018-12-09T08:04:29.652Z,983.43
2018-12-09T08:05:29.457Z,983.43
2018-12-09T08:06:29.449Z,983.44
2018-12-09T08:07:29.440Z,983.44
2018-12-09T08:08:29.422Z,983.59
2018-12-09T08:09:29.415Z,983.60
2018-12-09T08:10:29.403Z,983.62
2018-12-09T08:11:29.396Z,983.60
2018-12-09T08:12:29.390Z,983.68
2018-12-09T08:13:29.370Z,983.64
2018-12-09T08:14:29.362Z,983.61
2018-12-09T08:15:29.347Z,983.69
2018-12-09T08:16:29.339Z,983.70
2018-12-09T08:17:29.322Z,983.69
2018-12-09T08:18:29.315Z,983.76
2018-12-09T08:19:29.321Z,983.69
2018-12-09T08:20:29.294Z,983.74
2018-12-09T08:21:29.283Z,983.74
2018-12-09T08:22:29.272Z,983.82
2018-12-09T08:23:29.268Z,983.78
2018-12-09T08:24:29.250Z,983.75
2018-12-09T08:25:29.251Z,983.82
2018-12-09T08:26:29.240Z,983.81
2018-12-09T08:27:29.228Z,983.91
2018-12-09T08:28:29.212Z,983.85
2018-12-09T08:29:29.198Z,983.95
2018-12-09T08:30:29.194Z,983.94
2018-12-09T08:31:29.182Z,983.86
2018-12-09T08:32:29.168Z,983.90
2018-12-09T08:33:29.154Z,983.93
2018-12-09T08:34:29.142Z,983.90
2018-12-09T08:35:29.138Z,983.89
2018-12-09T08:36:29.126Z,984.03
2018-12-09T08:37:29.124Z,984.06
2018-12-09T08:38:29.102Z,984.02
2018-12-09T08:39:29.092Z,984.04
2018-12-09T08:40:29.076Z,984.07
2018-12-09T08:41:29.066Z,984.05
2018-12-09T08:42:29.162Z,984.07
2018-12-09T08:43:29.060Z,984.13
2018-12-09T08:44:29.042Z,984.13
2018-12-09T08:45:29.028Z,984.15
2018-12-09T08:46:29.073Z,984.16
2018-12-09T08:47:29.025Z,984.19
2018-12-09T08:48:29.002Z,984.25
2018-12-09T08:49:28.988Z,984.28
2018-12-09T08:50:28.977Z,984.29
2018-12-09T08:51:28.967Z,984.32
2018-12-09T08:52:28.954Z,984.34
2018-12-09T08:53:28.946Z,984.28
2018-12-09T08:54:28.930Z,984.38
2018-12-09T08:55:28.923Z,984.30
2018-12-09T08:56:28.911Z,984.38
2018-12-09T08:57:28.902Z,984.40
2018-12-09T08:58:28.887Z,984.33
2018-12-09T08:59:28.883Z,984.41
2018-12-09T09:00:28.872Z,984.43
2018-12-09T09:01:28.861Z,984.46
2018-12-09T09:02:28.845Z,984.53
2018-12-09T09:03:28.857Z,984.51
2018-12-09T09:04:28.824Z,984.52
2018-12-09T09:05:28.818Z,984.58
2018-12-09T09:06:28.806Z,984.57
2018-12-09T09:07:28.802Z,984.56
2018-12-09T09:08:28.787Z,984.57
2018-12-09T09:09:28.772Z,984.56
2018-12-09T09:10:28.763Z,984.62
2018-12-09T09:11:28.750Z,984.64
2018-12-09T09:12:28.742Z,984.65
2018-12-09T09:13:28.739Z,984.64
2018-12-09T09:14:28.720Z,984.71
2018-12-09T09:15:28.706Z,984.74
2018-12-09T09:16:28.701Z,984.76
2018-12-09T09:17:28.689Z,984.74
2018-12-09T09:18:28.676Z,984.80
2018-12-09T09:19:28.675Z,984.74
2018-12-09T09:20:28.654Z,984.76
2018-12-09T09:21:28.652Z,984.76
2018-12-09T09:22:28.637Z,984.78
2018-12-09T09:23:28.625Z,984.78
2018-12-09T09:24:28.611Z,984.82
2018-12-09T09:25:28.604Z,984.73
2018-12-09T09:26:28.597Z,984.86
2018-12-09T09:27:28.593Z,984.83
2018-12-09T09:28:28.573Z,984.87
2018-12-09T09:29:28.560Z,984.85
2018-12-09T09:30:28.552Z,984.78
2018-12-09T09:31:28.544Z,984.81
2018-12-09T09:32:28.532Z,984.91
2018-12-09T09:33:28.517Z,984.86
2018-12-09T09:34:28.512Z,984.81
2018-12-09T09:35:28.494Z,984.93
2018-12-09T09:36:28.486Z,984.93
2018-12-09T09:37:28.476Z,984.82
2018-12-09T09:38:28.464Z,984.88
2018-12-09T09:39:28.456Z,984.92
2018-12-09T09:40:28.443Z,984.88
2018-12-09T09:41:28.444Z,984.90
2018-12-09T09:42:28.424Z,984.88
2018-12-09T09:43:28.439Z,984.86
2018-12-09T09:44:28.403Z,984.89
2018-12-09T09:45:28.394Z,984.93
2018-12-09T09:46:28.377Z,984.90
2018-12-09T09:47:28.372Z,984.89
2018-12-09T09:48:28.360Z,984.97
2018-12-09T09:49:28.346Z,985.02
2018-12-09T09:50:28.335Z,985.07
2018-12-09T09:51:28.325Z,985.03
2018-12-09T09:52:28.313Z,984.99
2018-12-09T09:53:28.308Z,985.08
2018-12-09T09:54:28.292Z,985.05
2018-12-09T09:55:28.280Z,985.03
2018-12-09T09:56:28.272Z,985.01
2018-12-09T09:57:28.268Z,985.10
2018-12-09T09:58:28.251Z,985.11
2018-12-09T09:59:28.241Z,985.10
2018-12-09T10:00:28.229Z,985.12
2018-12-09T10:01:28.217Z,985.11
2018-12-09T10:02:28.213Z,985.06
2018-12-09T10:03:28.200Z,985.05
2018-12-09T10:04:28.187Z,985.09
2018-12-09T10:05:28.183Z,985.15
2018-12-09T10:06:28.162Z,985.14
2018-12-09T10:07:28.162Z,985.17
2018-12-09T10:08:28.145Z,985.20
2018-12-09T10:09:28.136Z,985.19
2018-12-09T10:10:28.124Z,985.26
2018-12-09T10:11:28.107Z,985.23
2018-12-09T10:12:28.100Z,985.31
2018-12-09T10:13:28.091Z,985.31
2018-12-09T10:14:28.079Z,985.25
2018-12-09T10:15:28.072Z,985.27
2018-12-09T10:16:28.060Z,985.31
2018-12-09T10:17:28.048Z,985.27
2018-12-09T10:18:28.036Z,985.34
2018-12-09T10:19:28.038Z,985.32
2018-12-09T10:20:28.013Z,985.29
2018-12-09T10:21:28.011Z,985.31
2018-12-09T10:22:28.000Z,985.34
2018-12-09T10:23:27.992Z,985.33
2018-12-09T10:24:27.979Z,985.29
2018-12-09T10:25:27.966Z,985.30
2018-12-09T10:26:36.227Z,985.28
2018-12-09T10:27:28.941Z,985.28
2018-12-09T10:28:27.953Z,985.27
2018-12-09T10:29:27.922Z,985.32
2018-12-09T10:30:27.910Z,985.34
2018-12-09T10:31:27.897Z,985.25
2018-12-09T10:32:27.886Z,985.28
2018-12-09T10:33:27.877Z,985.33
2018-12-09T10:34:27.869Z,985.28
2018-12-09T10:35:27.864Z,985.26
2018-12-09T10:36:27.847Z,985.35
2018-12-09T10:37:27.848Z,985.32
2018-12-09T10:38:27.823Z,985.34
2018-12-09T10:39:27.816Z,985.32
2018-12-09T10:40:27.811Z,985.31
2018-12-09T10:41:27.791Z,985.36
2018-12-09T10:42:27.780Z,985.32
2018-12-09T10:43:27.776Z,985.36
2018-12-09T10:44:27.761Z,985.34
2018-12-09T10:45:27.758Z,985.40
2018-12-09T10:46:27.747Z,985.41
2018-12-09T10:47:27.727Z,985.34
2018-12-09T10:48:27.722Z,985.40
2018-12-09T10:49:27.714Z,985.37
2018-12-09T10:50:27.698Z,985.42
2018-12-09T10:51:27.691Z,985.47
2018-12-09T10:52:27.675Z,985.45
2018-12-09T10:53:27.674Z,985.41
2018-12-09T10:54:27.660Z,985.40
2018-12-09T10:55:27.646Z,985.49
2018-12-09T10:56:27.636Z,985.43
2018-12-09T10:57:27.743Z,985.45
2018-12-09T10:58:27.614Z,985.49
2018-12-09T10:59:27.605Z,985.49
2018-12-09T11:00:27.592Z,985.49
2018-12-09T11:01:27.576Z,985.48
2018-12-09T11:02:27.572Z,985.48
2018-12-09T11:03:27.564Z,985.48
2018-12-09T11:04:27.548Z,985.47
2018-12-09T11:05:27.532Z,985.49
2018-12-09T11:06:27.534Z,985.41
2018-12-09T11:07:27.617Z,985.55
2018-12-09T11:08:27.509Z,985.52
2018-12-09T11:09:27.632Z,985.52
2018-12-09T11:10:27.496Z,985.46
2018-12-09T11:11:27.471Z,985.53
2018-12-09T11:12:27.483Z,985.52
2018-12-09T11:13:27.452Z,985.46
2018-12-09T11:14:27.444Z,985.54
2018-12-09T11:15:27.470Z,985.53
2018-12-09T11:16:27.414Z,985.55
2018-12-09T11:17:27.442Z,985.52
2018-12-09T11:18:27.439Z,985.52
2018-12-09T11:19:27.378Z,985.58
2018-12-09T11:20:27.378Z,985.56
2018-12-09T11:21:30.760Z,985.64
2018-12-09T11:22:27.348Z,985.57
2018-12-09T11:23:27.340Z,985.61
2018-12-09T11:24:27.323Z,985.61
2018-12-09T11:25:27.316Z,985.59
2018-12-09T11:26:27.312Z,985.57
2018-12-09T11:27:27.296Z,985.57
2018-12-09T11:28:27.282Z,985.62
2018-12-09T11:29:27.272Z,985.59
2018-12-09T11:30:27.265Z,985.64
2018-12-09T11:31:27.263Z,985.64
2018-12-09T11:32:27.247Z,985.65
2018-12-09T11:33:27.232Z,985.67
2018-12-09T11:34:27.224Z,985.61
2018-12-09T11:35:27.205Z,985.63
2018-12-09T11:36:27.198Z,985.61
2018-12-09T11:37:27.185Z,985.53
2018-12-09T11:38:27.174Z,985.54
2018-12-09T11:39:27.160Z,985.47
2018-12-09T11:40:27.189Z,985.53
2018-12-09T11:41:27.143Z,985.53
2018-12-09T11:42:27.125Z,985.52
2018-12-09T11:43:27.150Z,985.58
2018-12-09T11:44:27.109Z,985.50
2018-12-09T11:45:27.095Z,985.55
2018-12-09T11:46:27.085Z,985.46
2018-12-09T11:47:27.073Z,985.57
2018-12-09T11:48:27.068Z,985.52
2018-12-09T11:49:27.054Z,985.55
2018-12-09T11:50:27.044Z,985.56
2018-12-09T11:51:27.037Z,985.49
2018-12-09T11:52:27.019Z,985.52
2018-12-09T11:53:27.014Z,985.58
2018-12-09T11:54:27.001Z,985.56
2018-12-09T11:55:26.987Z,985.57
2018-12-09T11:56:27.100Z,985.61
2018-12-09T11:57:26.963Z,985.65
2018-12-09T11:58:26.955Z,985.61
2018-12-09T11:59:26.946Z,985.68
2018-12-09T12:00:26.933Z,985.65
2018-12-09T12:01:26.925Z,985.66
2018-12-09T12:02:26.919Z,985.65
2018-12-09T12:03:26.897Z,985.62
2018-12-09T12:04:26.888Z,985.66
2018-12-09T12:05:26.879Z,985.62
2018-12-09T12:06:26.873Z,985.63
2018-12-09T12:07:26.855Z,985.65
2018-12-09T12:08:26.844Z,985.66
2018-12-09T12:09:26.841Z,985.63
2018-12-09T12:10:26.829Z,985.66
2018-12-09T12:11:26.813Z,985.70
2018-12-09T12:12:26.801Z,985.67
2018-12-09T12:13:26.797Z,985.71
2018-12-09T12:14:26.803Z,985.66
2018-12-09T12:15:26.770Z,985.72
2018-12-09T12:16:26.761Z,985.73
2018-12-09T12:17:26.751Z,985.73
2018-12-09T12:18:26.740Z,985.73
2018-12-09T12:19:26.726Z,985.76
2018-12-09T12:20:26.713Z,985.75
2018-12-09T12:21:26.709Z,985.78
2018-12-09T12:22:26.695Z,985.75
2018-12-09T12:23:26.682Z,985.78
2018-12-09T12:24:26.667Z,985.80
2018-12-09T12:25:26.672Z,985.74
2018-12-09T12:26:26.644Z,985.79
2018-12-09T12:27:26.641Z,985.82
2018-12-09T12:28:26.628Z,985.80